Please disable your adblock and script blockers to view this page.

ICAO: LHBP Country: Bulgaria
Latitude: 47.436933 Longitude: 19.255592
Total Arrivals: 6 Total Departures: 4
Latest Arrival:  SDC1047 (ELLX-LHBP) GeoffreyDe Kergariou Latest Departure:  SDCK01 (LHBP-EHAM) GeoffreyDe Kergariou
Available Weather Information

METAR FOR LHBP (Issued: Tue, October 17th 2017 1:00 PM UTC):
LHBP 171300Z VRB03KT CAVOK 24/14 Q1025 NOSIG

Runways

Runway ID Mag Var Hdg Length Elevation Surface ILS Freq ILS Id ILS Slope
13L 2 129° 12148 ft 443 ft Concrete 111.7 BPL 3
13R 2 129° 9861 ft 443 ft Concrete 110.5 FER 3
31L 2 309° 9861 ft 443 ft Concrete 111.5 FHL 3
31R 2 309° 12148 ft 443 ft Concrete 109.5 BPR 3

Budapest Ferihegy




SkyDream Airlines

Start your flying career at SkyDream Airlines today and join a nice and friendly community!

Have fun flying in France and all over the World!

Copyright © 2017 - SkyDream Airlines

AIRAC cycle : 1711 Version : 1 Valid (from/to): 12/OCT/2017 - 08/NOV/2017

Your IP is 162.158.62.43

This page was generated in 0.0008 seconds

Website design by FSX30HD CMS by phpVMS